Saline, Louisiana
Current Conditions -  °F | °C
As of 11:55 AM on Monday 24 Nov 2014 (Local Time) from KIER Reporting Station
Clear Clear  
Wind Chill: 61°   Ceiling: Unl
Heat Index: 61°   Visibility: 10mi
Dew Point: 37°   Wind: 15mph
Humidity: 40%   Direction: 320°NW
Pressure: 30"   Gusts: 22mph
Location:  32.16°N, 92.97°W
Report Text: KIER 241755Z AUTO 32013G19KT 10SM CLR 16/03 A3000 RMK AO2 T01600025 10160 20087
Loading
Personal Weather Stations






























Interactive Weather Map New forecast layout! Learn more

10-Day Weather Forecast

Advertisements
Track Severe Weather on mobile